sensor_id;sensor_type;location;lat;lon;timestamp;P1;durP1;ratioP1;P2;durP2;ratioP2
59008;SDS011;44794;42.652;23.318;2023-06-19T00:00:05;7.55;;;5.90;;
59008;SDS011;44794;42.652;23.318;2023-06-19T00:02:37;7.65;;;5.95;;
59008;SDS011;44794;42.652;23.318;2023-06-19T00:05:03;8.30;;;5.55;;
59008;SDS011;44794;42.652;23.318;2023-06-19T00:07:29;6.95;;;5.78;;
59008;SDS011;44794;42.652;23.318;2023-06-19T00:09:54;8.30;;;5.43;;
59008;SDS011;44794;42.652;23.318;2023-06-19T00:12:20;8.10;;;6.18;;
59008;SDS011;44794;42.652;23.318;2023-06-19T00:14:45;7.95;;;6.45;;
59008;SDS011;44794;42.652;23.318;2023-06-19T00:17:12;10.38;;;6.38;;
59008;SDS011;44794;42.652;23.318;2023-06-19T00:19:41;6.70;;;5.77;;
59008;SDS011;44794;42.652;23.318;2023-06-19T00:22:07;9.40;;;6.13;;
59008;SDS011;44794;42.652;23.318;2023-06-19T00:24:33;6.10;;;5.38;;
59008;SDS011;44794;42.652;23.318;2023-06-19T00:26:58;7.30;;;6.32;;
59008;SDS011;44794;42.652;23.318;2023-06-19T00:29:31;8.70;;;6.05;;
59008;SDS011;44794;42.652;23.318;2023-06-19T00:31:57;8.07;;;5.72;;
59008;SDS011;44794;42.652;23.318;2023-06-19T00:34:23;6.22;;;5.53;;
59008;SDS011;44794;42.652;23.318;2023-06-19T00:36:49;7.05;;;5.82;;
59008;SDS011;44794;42.652;23.318;2023-06-19T00:39:16;9.63;;;5.97;;
59008;SDS011;44794;42.652;23.318;2023-06-19T00:41:42;7.53;;;5.60;;
59008;SDS011;44794;42.652;23.318;2023-06-19T00:44:08;8.43;;;5.68;;
59008;SDS011;44794;42.652;23.318;2023-06-19T00:46:35;6.50;;;5.70;;
59008;SDS011;44794;42.652;23.318;2023-06-19T00:49:02;6.20;;;5.40;;
59008;SDS011;44794;42.652;23.318;2023-06-19T00:51:28;6.72;;;5.72;;
59008;SDS011;44794;42.652;23.318;2023-06-19T00:53:54;8.70;;;5.68;;
59008;SDS011;44794;42.652;23.318;2023-06-19T00:56:20;9.10;;;5.70;;
59008;SDS011;44794;42.652;23.318;2023-06-19T00:58:45;7.28;;;5.93;;
59008;SDS011;44794;42.652;23.318;2023-06-19T01:01:11;9.98;;;6.10;;
59008;SDS011;44794;42.652;23.318;2023-06-19T01:03:38;6.60;;;5.90;;
59008;SDS011;44794;42.652;23.318;2023-06-19T01:06:13;6.95;;;5.78;;
59008;SDS011;44794;42.652;23.318;2023-06-19T01:11:39;6.70;;;6.00;;
59008;SDS011;44794;42.652;23.318;2023-06-19T01:14:17;7.50;;;5.78;;
59008;SDS011;44794;42.652;23.318;2023-06-19T01:16:46;9.75;;;6.28;;
59008;SDS011;44794;42.652;23.318;2023-06-19T01:19:14;10.18;;;6.20;;
59008;SDS011;44794;42.652;23.318;2023-06-19T01:21:42;7.97;;;5.95;;
59008;SDS011;44794;42.652;23.318;2023-06-19T01:24:08;7.57;;;6.15;;
59008;SDS011;44794;42.652;23.318;2023-06-19T01:26:33;7.80;;;5.88;;
59008;SDS011;44794;42.652;23.318;2023-06-19T01:28:59;7.47;;;5.82;;
59008;SDS011;44794;42.652;23.318;2023-06-19T01:31:29;8.20;;;6.30;;
59008;SDS011;44794;42.652;23.318;2023-06-19T01:33:58;7.88;;;6.28;;
59008;SDS011;44794;42.652;23.318;2023-06-19T01:36:26;7.70;;;5.75;;
59008;SDS011;44794;42.652;23.318;2023-06-19T01:38:54;9.27;;;6.70;;
59008;SDS011;44794;42.652;23.318;2023-06-19T01:41:22;8.45;;;6.50;;
59008;SDS011;44794;42.652;23.318;2023-06-19T01:43:49;8.18;;;6.47;;
59008;SDS011;44794;42.652;23.318;2023-06-19T01:46:15;9.27;;;6.15;;
59008;SDS011;44794;42.652;23.318;2023-06-19T01:48:40;8.05;;;6.05;;
59008;SDS011;44794;42.652;23.318;2023-06-19T01:51:06;7.72;;;6.03;;
59008;SDS011;44794;42.652;23.318;2023-06-19T01:53:31;7.18;;;6.45;;
59008;SDS011;44794;42.652;23.318;2023-06-19T01:55:57;8.07;;;6.10;;
59008;SDS011;44794;42.652;23.318;2023-06-19T01:58:23;8.07;;;6.40;;
59008;SDS011;44794;42.652;23.318;2023-06-19T02:00:49;7.10;;;6.38;;
59008;SDS011;44794;42.652;23.318;2023-06-19T02:03:14;9.65;;;6.63;;
59008;SDS011;44794;42.652;23.318;2023-06-19T02:05:40;7.32;;;6.43;;
59008;SDS011;44794;42.652;23.318;2023-06-19T02:08:05;7.70;;;6.25;;
59008;SDS011;44794;42.652;23.318;2023-06-19T02:10:31;8.98;;;6.30;;
59008;SDS011;44794;42.652;23.318;2023-06-19T02:12:57;9.55;;;6.35;;
59008;SDS011;44794;42.652;23.318;2023-06-19T02:15:23;9.95;;;6.63;;
59008;SDS011;44794;42.652;23.318;2023-06-19T02:17:48;8.75;;;6.32;;
59008;SDS011;44794;42.652;23.318;2023-06-19T02:20:14;8.07;;;6.85;;
59008;SDS011;44794;42.652;23.318;2023-06-19T02:22:40;9.10;;;6.72;;
59008;SDS011;44794;42.652;23.318;2023-06-19T02:25:07;11.32;;;6.95;;
59008;SDS011;44794;42.652;23.318;2023-06-19T02:27:32;8.27;;;7.07;;
59008;SDS011;44794;42.652;23.318;2023-06-19T02:29:58;14.55;;;7.60;;
59008;SDS011;44794;42.652;23.318;2023-06-19T02:32:23;9.32;;;7.93;;
59008;SDS011;44794;42.652;23.318;2023-06-19T02:34:49;11.73;;;7.65;;
59008;SDS011;44794;42.652;23.318;2023-06-19T02:37:15;11.52;;;8.20;;
59008;SDS011;44794;42.652;23.318;2023-06-19T02:39:40;9.32;;;7.93;;
59008;SDS011;44794;42.652;23.318;2023-06-19T02:42:05;11.60;;;8.18;;
59008;SDS011;44794;42.652;23.318;2023-06-19T02:44:31;10.15;;;7.95;;
59008;SDS011;44794;42.652;23.318;2023-06-19T02:46:57;11.32;;;8.27;;
59008;SDS011;44794;42.652;23.318;2023-06-19T02:49:22;10.85;;;9.10;;
59008;SDS011;44794;42.652;23.318;2023-06-19T02:51:48;13.75;;;8.65;;
59008;SDS011;44794;42.652;23.318;2023-06-19T02:54:14;10.68;;;8.57;;
59008;SDS011;44794;42.652;23.318;2023-06-19T02:56:39;9.77;;;8.50;;
59008;SDS011;44794;42.652;23.318;2023-06-19T02:59:05;15.07;;;8.88;;
59008;SDS011;44794;42.652;23.318;2023-06-19T03:01:30;12.43;;;8.73;;
59008;SDS011;44794;42.652;23.318;2023-06-19T03:03:56;16.77;;;8.63;;
59008;SDS011;44794;42.652;23.318;2023-06-19T03:06:21;13.63;;;8.25;;
59008;SDS011;44794;42.652;23.318;2023-06-19T03:08:47;11.20;;;7.72;;
59008;SDS011;44794;42.652;23.318;2023-06-19T03:11:13;12.43;;;7.55;;
59008;SDS011;44794;42.652;23.318;2023-06-19T03:13:51;9.75;;;7.63;;
59008;SDS011;44794;42.652;23.318;2023-06-19T03:16:17;13.63;;;7.80;;
59008;SDS011;44794;42.652;23.318;2023-06-19T03:18:43;11.23;;;7.80;;
59008;SDS011;44794;42.652;23.318;2023-06-19T03:21:10;12.02;;;6.95;;
59008;SDS011;44794;42.652;23.318;2023-06-19T03:23:39;10.35;;;6.68;;
59008;SDS011;44794;42.652;23.318;2023-06-19T03:26:06;11.43;;;7.40;;
59008;SDS011;44794;42.652;23.318;2023-06-19T03:28:32;11.02;;;6.80;;
59008;SDS011;44794;42.652;23.318;2023-06-19T03:30:58;8.27;;;6.70;;
59008;SDS011;44794;42.652;23.318;2023-06-19T03:33:23;9.98;;;6.18;;
59008;SDS011;44794;42.652;23.318;2023-06-19T03:35:49;7.65;;;6.53;;
59008;SDS011;44794;42.652;23.318;2023-06-19T03:38:14;10.73;;;6.30;;
59008;SDS011;44794;42.652;23.318;2023-06-19T03:40:40;7.72;;;6.50;;
59008;SDS011;44794;42.652;23.318;2023-06-19T03:43:06;8.40;;;6.75;;
59008;SDS011;44794;42.652;23.318;2023-06-19T03:45:31;11.30;;;6.68;;
59008;SDS011;44794;42.652;23.318;2023-06-19T03:47:56;10.23;;;6.72;;
59008;SDS011;44794;42.652;23.318;2023-06-19T03:50:22;10.50;;;6.75;;
59008;SDS011;44794;42.652;23.318;2023-06-19T03:52:47;7.70;;;6.30;;
59008;SDS011;44794;42.652;23.318;2023-06-19T03:55:13;7.47;;;5.97;;
59008;SDS011;44794;42.652;23.318;2023-06-19T03:57:38;9.57;;;6.43;;
59008;SDS011;44794;42.652;23.318;2023-06-19T04:00:04;7.78;;;6.50;;
59008;SDS011;44794;42.652;23.318;2023-06-19T04:02:33;10.27;;;7.57;;
59008;SDS011;44794;42.652;23.318;2023-06-19T04:04:59;12.05;;;9.63;;
59008;SDS011;44794;42.652;23.318;2023-06-19T04:07:25;10.82;;;8.43;;
59008;SDS011;44794;42.652;23.318;2023-06-19T04:09:50;11.82;;;8.38;;
59008;SDS011;44794;42.652;23.318;2023-06-19T04:12:16;10.77;;;7.22;;
59008;SDS011;44794;42.652;23.318;2023-06-19T04:14:41;9.57;;;6.97;;
59008;SDS011;44794;42.652;23.318;2023-06-19T04:17:06;10.02;;;7.22;;
59008;SDS011;44794;42.652;23.318;2023-06-19T04:19:32;8.68;;;6.47;;
59008;SDS011;44794;42.652;23.318;2023-06-19T04:21:57;9.60;;;5.90;;
59008;SDS011;44794;42.652;23.318;2023-06-19T04:24:23;9.07;;;6.30;;
59008;SDS011;44794;42.652;23.318;2023-06-19T04:26:48;6.38;;;5.55;;
59008;SDS011;44794;42.652;23.318;2023-06-19T04:29:13;7.38;;;5.32;;
59008;SDS011;44794;42.652;23.318;2023-06-19T04:31:43;6.28;;;5.38;;
59008;SDS011;44794;42.652;23.318;2023-06-19T04:34:11;9.10;;;5.78;;
59008;SDS011;44794;42.652;23.318;2023-06-19T04:36:41;6.83;;;5.53;;
59008;SDS011;44794;42.652;23.318;2023-06-19T04:39:06;7.05;;;5.60;;
59008;SDS011;44794;42.652;23.318;2023-06-19T04:41:32;8.55;;;5.80;;
59008;SDS011;44794;42.652;23.318;2023-06-19T04:43:57;8.20;;;5.70;;
59008;SDS011;44794;42.652;23.318;2023-06-19T04:46:23;6.10;;;5.50;;
59008;SDS011;44794;42.652;23.318;2023-06-19T04:48:48;7.03;;;5.05;;
59008;SDS011;44794;42.652;23.318;2023-06-19T04:51:17;5.90;;;5.07;;
59008;SDS011;44794;42.652;23.318;2023-06-19T04:53:46;6.80;;;4.97;;
59008;SDS011;44794;42.652;23.318;2023-06-19T04:56:14;11.20;;;5.50;;
59008;SDS011;44794;42.652;23.318;2023-06-19T04:58:40;9.30;;;5.43;;
59008;SDS011;44794;42.652;23.318;2023-06-19T05:01:14;9.00;;;5.18;;
59008;SDS011;44794;42.652;23.318;2023-06-19T05:03:41;8.55;;;5.32;;
59008;SDS011;44794;42.652;23.318;2023-06-19T05:06:07;5.72;;;5.13;;
59008;SDS011;44794;42.652;23.318;2023-06-19T05:08:33;6.28;;;5.43;;
59008;SDS011;44794;42.652;23.318;2023-06-19T05:10:59;11.02;;;5.50;;
59008;SDS011;44794;42.652;23.318;2023-06-19T05:13:24;6.35;;;5.25;;
59008;SDS011;44794;42.652;23.318;2023-06-19T05:15:50;6.75;;;5.57;;
59008;SDS011;44794;42.652;23.318;2023-06-19T05:18:16;7.88;;;5.57;;
59008;SDS011;44794;42.652;23.318;2023-06-19T05:20:42;9.27;;;5.43;;
59008;SDS011;44794;42.652;23.318;2023-06-19T05:23:07;7.55;;;5.63;;
59008;SDS011;44794;42.652;23.318;2023-06-19T05:25:33;14.07;;;5.45;;
59008;SDS011;44794;42.652;23.318;2023-06-19T05:27:58;7.38;;;5.18;;
59008;SDS011;44794;42.652;23.318;2023-06-19T05:30:23;10.75;;;5.35;;
59008;SDS011;44794;42.652;23.318;2023-06-19T05:32:49;6.03;;;5.43;;
59008;SDS011;44794;42.652;23.318;2023-06-19T05:35:14;7.72;;;5.90;;
59008;SDS011;44794;42.652;23.318;2023-06-19T05:37:40;9.68;;;5.25;;
59008;SDS011;44794;42.652;23.318;2023-06-19T05:40:09;11.13;;;5.50;;
59008;SDS011;44794;42.652;23.318;2023-06-19T05:42:35;15.18;;;5.72;;
59008;SDS011;44794;42.652;23.318;2023-06-19T05:45:02;13.68;;;5.25;;
59008;SDS011;44794;42.652;23.318;2023-06-19T05:47:28;10.95;;;5.63;;
59008;SDS011;44794;42.652;23.318;2023-06-19T05:49:55;15.48;;;6.68;;
59008;SDS011;44794;42.652;23.318;2023-06-19T05:52:21;11.63;;;5.55;;
59008;SDS011;44794;42.652;23.318;2023-06-19T05:54:47;9.73;;;4.97;;
59008;SDS011;44794;42.652;23.318;2023-06-19T05:57:13;13.15;;;5.57;;
59008;SDS011;44794;42.652;23.318;2023-06-19T05:59:40;8.82;;;5.30;;
59008;SDS011;44794;42.652;23.318;2023-06-19T06:02:06;8.98;;;5.22;;
59008;SDS011;44794;42.652;23.318;2023-06-19T06:04:33;5.50;;;4.80;;
59008;SDS011;44794;42.652;23.318;2023-06-19T06:06:59;5.85;;;5.00;;
59008;SDS011;44794;42.652;23.318;2023-06-19T06:09:25;5.85;;;5.00;;
59008;SDS011;44794;42.652;23.318;2023-06-19T06:11:52;9.43;;;5.00;;
59008;SDS011;44794;42.652;23.318;2023-06-19T06:14:17;11.55;;;5.45;;
59008;SDS011;44794;42.652;23.318;2023-06-19T06:16:43;7.63;;;4.95;;
59008;SDS011;44794;42.652;23.318;2023-06-19T06:19:08;6.45;;;4.50;;
59008;SDS011;44794;42.652;23.318;2023-06-19T06:21:34;7.05;;;5.00;;
59008;SDS011;44794;42.652;23.318;2023-06-19T06:23:59;7.35;;;5.00;;
59008;SDS011;44794;42.652;23.318;2023-06-19T06:26:25;11.80;;;6.20;;
59008;SDS011;44794;42.652;23.318;2023-06-19T06:28:53;8.85;;;4.90;;
59008;SDS011;44794;42.652;23.318;2023-06-19T06:31:21;6.03;;;5.32;;
59008;SDS011;44794;42.652;23.318;2023-06-19T06:33:47;8.75;;;5.57;;
59008;SDS011;44794;42.652;23.318;2023-06-19T06:36:14;10.00;;;5.50;;
59008;SDS011;44794;42.652;23.318;2023-06-19T06:38:40;6.90;;;4.70;;
59008;SDS011;44794;42.652;23.318;2023-06-19T06:41:06;7.60;;;5.22;;
59008;SDS011;44794;42.652;23.318;2023-06-19T06:43:31;8.98;;;5.53;;
59008;SDS011;44794;42.652;23.318;2023-06-19T06:45:57;14.35;;;5.78;;
59008;SDS011;44794;42.652;23.318;2023-06-19T06:48:22;9.18;;;5.32;;
59008;SDS011;44794;42.652;23.318;2023-06-19T06:50:48;7.72;;;5.05;;
59008;SDS011;44794;42.652;23.318;2023-06-19T06:53:14;6.55;;;5.15;;
59008;SDS011;44794;42.652;23.318;2023-06-19T06:55:39;6.63;;;4.68;;
59008;SDS011;44794;42.652;23.318;2023-06-19T06:58:05;6.22;;;4.90;;
59008;SDS011;44794;42.652;23.318;2023-06-19T07:00:30;8.73;;;5.28;;
59008;SDS011;44794;42.652;23.318;2023-06-19T07:02:56;5.65;;;4.78;;
59008;SDS011;44794;42.652;23.318;2023-06-19T07:05:21;8.57;;;4.70;;
59008;SDS011;44794;42.652;23.318;2023-06-19T07:07:47;7.35;;;4.90;;
59008;SDS011;44794;42.652;23.318;2023-06-19T07:10:14;13.02;;;5.18;;
59008;SDS011;44794;42.652;23.318;2023-06-19T07:12:46;11.30;;;4.97;;
59008;SDS011;44794;42.652;23.318;2023-06-19T07:15:13;6.15;;;4.45;;
59008;SDS011;44794;42.652;23.318;2023-06-19T07:17:38;5.88;;;4.28;;
59008;SDS011;44794;42.652;23.318;2023-06-19T07:20:04;9.65;;;5.55;;
59008;SDS011;44794;42.652;23.318;2023-06-19T07:22:31;13.20;;;4.97;;
59008;SDS011;44794;42.652;23.318;2023-06-19T07:24:57;8.50;;;4.78;;
59008;SDS011;44794;42.652;23.318;2023-06-19T07:27:22;7.47;;;4.68;;
59008;SDS011;44794;42.652;23.318;2023-06-19T07:29:52;6.03;;;4.80;;
59008;SDS011;44794;42.652;23.318;2023-06-19T07:32:18;5.78;;;4.97;;
59008;SDS011;44794;42.652;23.318;2023-06-19T07:34:45;4.88;;;4.38;;
59008;SDS011;44794;42.652;23.318;2023-06-19T07:37:10;6.43;;;4.38;;
59008;SDS011;44794;42.652;23.318;2023-06-19T07:39:42;6.55;;;4.80;;
59008;SDS011;44794;42.652;23.318;2023-06-19T07:42:14;9.07;;;5.18;;
59008;SDS011;44794;42.652;23.318;2023-06-19T07:44:41;5.88;;;4.78;;
59008;SDS011;44794;42.652;23.318;2023-06-19T07:47:07;18.83;;;5.43;;
59008;SDS011;44794;42.652;23.318;2023-06-19T07:49:34;10.57;;;5.13;;
59008;SDS011;44794;42.652;23.318;2023-06-19T07:52:04;5.72;;;4.88;;
59008;SDS011;44794;42.652;23.318;2023-06-19T07:54:30;6.70;;;4.47;;
59008;SDS011;44794;42.652;23.318;2023-06-19T07:56:55;6.22;;;5.05;;
59008;SDS011;44794;42.652;23.318;2023-06-19T07:59:21;6.97;;;4.80;;
59008;SDS011;44794;42.652;23.318;2023-06-19T08:01:47;7.38;;;4.50;;
59008;SDS011;44794;42.652;23.318;2023-06-19T08:04:12;8.43;;;5.32;;
59008;SDS011;44794;42.652;23.318;2023-06-19T08:06:38;7.93;;;4.90;;
59008;SDS011;44794;42.652;23.318;2023-06-19T08:09:03;5.15;;;4.47;;
59008;SDS011;44794;42.652;23.318;2023-06-19T08:11:29;5.07;;;4.57;;
59008;SDS011;44794;42.652;23.318;2023-06-19T08:13:54;7.38;;;4.85;;
59008;SDS011;44794;42.652;23.318;2023-06-19T08:16:20;6.35;;;4.65;;
59008;SDS011;44794;42.652;23.318;2023-06-19T08:18:45;5.82;;;4.35;;
59008;SDS011;44794;42.652;23.318;2023-06-19T08:21:11;8.10;;;4.90;;
59008;SDS011;44794;42.652;23.318;2023-06-19T08:23:37;8.07;;;4.63;;
59008;SDS011;44794;42.652;23.318;2023-06-19T08:26:04;6.25;;;4.80;;
59008;SDS011;44794;42.652;23.318;2023-06-19T08:28:33;6.32;;;4.82;;
59008;SDS011;44794;42.652;23.318;2023-06-19T08:31:02;5.07;;;4.43;;
59008;SDS011;44794;42.652;23.318;2023-06-19T08:33:28;7.10;;;4.53;;
59008;SDS011;44794;42.652;23.318;2023-06-19T08:35:53;6.40;;;4.47;;
59008;SDS011;44794;42.652;23.318;2023-06-19T08:38:21;6.35;;;4.60;;
59008;SDS011;44794;42.652;23.318;2023-06-19T08:40:46;6.30;;;4.35;;
59008;SDS011;44794;42.652;23.318;2023-06-19T08:43:12;5.85;;;4.28;;
59008;SDS011;44794;42.652;23.318;2023-06-19T08:45:37;5.50;;;4.57;;
59008;SDS011;44794;42.652;23.318;2023-06-19T08:48:03;7.28;;;4.72;;
59008;SDS011;44794;42.652;23.318;2023-06-19T08:50:29;5.53;;;4.80;;
59008;SDS011;44794;42.652;23.318;2023-06-19T08:52:55;7.95;;;4.60;;
59008;SDS011;44794;42.652;23.318;2023-06-19T08:55:21;5.72;;;4.68;;
59008;SDS011;44794;42.652;23.318;2023-06-19T08:57:47;5.28;;;4.13;;
59008;SDS011;44794;42.652;23.318;2023-06-19T09:00:22;7.15;;;4.55;;
59008;SDS011;44794;42.652;23.318;2023-06-19T09:02:59;6.47;;;4.20;;
59008;SDS011;44794;42.652;23.318;2023-06-19T09:05:27;8.85;;;4.53;;
59008;SDS011;44794;42.652;23.318;2023-06-19T09:07:56;8.15;;;4.32;;
59008;SDS011;44794;42.652;23.318;2023-06-19T09:10:28;8.00;;;4.72;;
59008;SDS011;44794;42.652;23.318;2023-06-19T09:13:00;5.88;;;4.13;;
59008;SDS011;44794;42.652;23.318;2023-06-19T09:15:27;4.55;;;3.90;;
59008;SDS011;44794;42.652;23.318;2023-06-19T09:18:04;4.80;;;4.30;;
59008;SDS011;44794;42.652;23.318;2023-06-19T09:20:36;4.68;;;4.20;;
59008;SDS011;44794;42.652;23.318;2023-06-19T09:23:13;6.13;;;3.85;;
59008;SDS011;44794;42.652;23.318;2023-06-19T09:25:45;5.75;;;4.40;;
59008;SDS011;44794;42.652;23.318;2023-06-19T09:28:17;7.35;;;4.30;;
59008;SDS011;44794;42.652;23.318;2023-06-19T09:31:00;6.78;;;4.05;;
59008;SDS011;44794;42.652;23.318;2023-06-19T09:33:27;4.80;;;4.30;;
59008;SDS011;44794;42.652;23.318;2023-06-19T09:35:55;6.50;;;4.20;;
59008;SDS011;44794;42.652;23.318;2023-06-19T09:38:26;6.70;;;4.80;;
59008;SDS011;44794;42.652;23.318;2023-06-19T09:40:53;6.63;;;4.30;;
59008;SDS011;44794;42.652;23.318;2023-06-19T09:43:26;5.43;;;4.30;;
59008;SDS011;44794;42.652;23.318;2023-06-19T09:46:08;9.18;;;4.90;;
59008;SDS011;44794;42.652;23.318;2023-06-19T09:48:36;7.00;;;4.57;;
59008;SDS011;44794;42.652;23.318;2023-06-19T09:53:36;9.90;;;4.85;;
59008;SDS011;44794;42.652;23.318;2023-06-19T09:56:04;5.70;;;5.05;;
59008;SDS011;44794;42.652;23.318;2023-06-19T09:58:29;5.93;;;4.88;;
59008;SDS011;44794;42.652;23.318;2023-06-19T10:00:57;6.30;;;4.95;;
59008;SDS011;44794;42.652;23.318;2023-06-19T10:03:31;5.70;;;4.63;;
59008;SDS011;44794;42.652;23.318;2023-06-19T10:05:58;8.30;;;4.55;;
59008;SDS011;44794;42.652;23.318;2023-06-19T10:08:29;5.20;;;4.68;;
59008;SDS011;44794;42.652;23.318;2023-06-19T10:10:56;6.80;;;4.88;;
59008;SDS011;44794;42.652;23.318;2023-06-19T10:13:22;7.13;;;4.65;;
59008;SDS011;44794;42.652;23.318;2023-06-19T10:15:56;6.10;;;4.55;;
59008;SDS011;44794;42.652;23.318;2023-06-19T10:18:22;5.65;;;4.15;;
59008;SDS011;44794;42.652;23.318;2023-06-19T10:20:50;5.60;;;4.80;;
59008;SDS011;44794;42.652;23.318;2023-06-19T10:23:16;7.40;;;4.90;;
59008;SDS011;44794;42.652;23.318;2023-06-19T10:25:48;6.20;;;4.20;;
59008;SDS011;44794;42.652;23.318;2023-06-19T10:28:20;7.32;;;4.15;;
59008;SDS011;44794;42.652;23.318;2023-06-19T10:30:53;4.63;;;4.10;;
59008;SDS011;44794;42.652;23.318;2023-06-19T10:33:19;6.03;;;4.00;;
59008;SDS011;44794;42.652;23.318;2023-06-19T10:35:45;9.75;;;4.90;;
59008;SDS011;44794;42.652;23.318;2023-06-19T10:38:13;4.75;;;4.10;;
59008;SDS011;44794;42.652;23.318;2023-06-19T10:40:40;4.75;;;4.03;;
59008;SDS011;44794;42.652;23.318;2023-06-19T10:43:05;6.25;;;4.53;;
59008;SDS011;44794;42.652;23.318;2023-06-19T10:45:31;7.53;;;4.30;;
59008;SDS011;44794;42.652;23.318;2023-06-19T10:47:57;6.18;;;4.70;;
59008;SDS011;44794;42.652;23.318;2023-06-19T10:50:26;6.55;;;4.50;;
59008;SDS011;44794;42.652;23.318;2023-06-19T10:52:52;7.53;;;4.70;;
59008;SDS011;44794;42.652;23.318;2023-06-19T10:55:20;10.77;;;4.63;;
59008;SDS011;44794;42.652;23.318;2023-06-19T10:57:46;5.93;;;4.63;;
59008;SDS011;44794;42.652;23.318;2023-06-19T11:00:23;5.00;;;4.30;;
59008;SDS011;44794;42.652;23.318;2023-06-19T11:02:57;5.57;;;4.68;;
59008;SDS011;44794;42.652;23.318;2023-06-19T11:05:23;5.55;;;4.90;;
59008;SDS011;44794;42.652;23.318;2023-06-19T11:07:51;6.43;;;4.95;;
59008;SDS011;44794;42.652;23.318;2023-06-19T11:10:24;11.07;;;4.85;;
59008;SDS011;44794;42.652;23.318;2023-06-19T11:12:53;5.70;;;4.85;;
59008;SDS011;44794;42.652;23.318;2023-06-19T11:18:01;8.88;;;5.22;;
59008;SDS011;44794;42.652;23.318;2023-06-19T11:20:27;5.72;;;4.97;;
59008;SDS011;44794;42.652;23.318;2023-06-19T11:22:57;7.18;;;4.75;;
59008;SDS011;44794;42.652;23.318;2023-06-19T11:25:34;6.18;;;4.50;;
59008;SDS011;44794;42.652;23.318;2023-06-19T11:28:00;6.72;;;5.18;;
59008;SDS011;44794;42.652;23.318;2023-06-19T11:30:30;9.38;;;5.10;;
59008;SDS011;44794;42.652;23.318;2023-06-19T11:32:59;7.63;;;4.72;;
59008;SDS011;44794;42.652;23.318;2023-06-19T11:38:44;6.95;;;5.38;;
59008;SDS011;44794;42.652;23.318;2023-06-19T11:41:12;6.47;;;5.43;;
59008;SDS011;44794;42.652;23.318;2023-06-19T11:43:41;6.13;;;5.40;;
59008;SDS011;44794;42.652;23.318;2023-06-19T11:46:07;8.07;;;5.35;;
59008;SDS011;44794;42.652;23.318;2023-06-19T11:48:36;8.43;;;6.00;;
59008;SDS011;44794;42.652;23.318;2023-06-19T11:51:02;6.18;;;4.90;;
59008;SDS011;44794;42.652;23.318;2023-06-19T11:53:28;6.30;;;5.40;;
59008;SDS011;44794;42.652;23.318;2023-06-19T11:55:54;6.35;;;5.30;;
59008;SDS011;44794;42.652;23.318;2023-06-19T11:58:21;7.53;;;5.38;;
59008;SDS011;44794;42.652;23.318;2023-06-19T12:03:23;6.75;;;5.15;;
59008;SDS011;44794;42.652;23.318;2023-06-19T12:05:48;6.75;;;5.40;;
59008;SDS011;44794;42.652;23.318;2023-06-19T12:08:14;7.65;;;4.80;;
59008;SDS011;44794;42.652;23.318;2023-06-19T12:10:40;6.28;;;5.20;;
59008;SDS011;44794;42.652;23.318;2023-06-19T12:13:05;8.45;;;5.38;;
59008;SDS011;44794;42.652;23.318;2023-06-19T12:15:31;6.88;;;5.10;;
59008;SDS011;44794;42.652;23.318;2023-06-19T12:17:56;5.53;;;5.03;;
59008;SDS011;44794;42.652;23.318;2023-06-19T12:20:23;7.25;;;5.60;;
59008;SDS011;44794;42.652;23.318;2023-06-19T12:22:49;5.40;;;4.90;;
59008;SDS011;44794;42.652;23.318;2023-06-19T12:25:15;8.07;;;5.30;;
59008;SDS011;44794;42.652;23.318;2023-06-19T12:27:40;5.93;;;5.35;;
59008;SDS011;44794;42.652;23.318;2023-06-19T12:30:07;8.32;;;5.70;;
59008;SDS011;44794;42.652;23.318;2023-06-19T12:32:33;8.98;;;5.15;;
59008;SDS011;44794;42.652;23.318;2023-06-19T12:35:00;6.43;;;5.10;;
59008;SDS011;44794;42.652;23.318;2023-06-19T12:37:25;8.52;;;5.68;;
59008;SDS011;44794;42.652;23.318;2023-06-19T12:39:51;10.70;;;5.55;;
59008;SDS011;44794;42.652;23.318;2023-06-19T12:42:16;7.40;;;5.32;;
59008;SDS011;44794;42.652;23.318;2023-06-19T12:44:43;8.00;;;5.63;;
59008;SDS011;44794;42.652;23.318;2023-06-19T12:47:10;10.30;;;5.40;;
59008;SDS011;44794;42.652;23.318;2023-06-19T12:49:36;7.13;;;5.60;;
59008;SDS011;44794;42.652;23.318;2023-06-19T12:52:02;9.52;;;5.32;;
59008;SDS011;44794;42.652;23.318;2023-06-19T12:54:28;7.25;;;5.15;;
59008;SDS011;44794;42.652;23.318;2023-06-19T12:56:53;8.38;;;5.55;;
59008;SDS011;44794;42.652;23.318;2023-06-19T12:59:19;8.23;;;5.50;;
59008;SDS011;44794;42.652;23.318;2023-06-19T13:01:45;7.80;;;5.38;;
59008;SDS011;44794;42.652;23.318;2023-06-19T13:04:11;8.43;;;5.50;;
59008;SDS011;44794;42.652;23.318;2023-06-19T13:06:37;10.32;;;5.22;;
59008;SDS011;44794;42.652;23.318;2023-06-19T13:09:03;10.10;;;5.40;;
59008;SDS011;44794;42.652;23.318;2023-06-19T13:11:30;6.63;;;5.20;;
59008;SDS011;44794;42.652;23.318;2023-06-19T13:13:55;8.75;;;5.63;;
59008;SDS011;44794;42.652;23.318;2023-06-19T13:16:21;7.28;;;5.45;;
59008;SDS011;44794;42.652;23.318;2023-06-19T13:18:49;6.13;;;4.82;;
59008;SDS011;44794;42.652;23.318;2023-06-19T13:21:14;6.88;;;5.47;;
59008;SDS011;44794;42.652;23.318;2023-06-19T13:23:40;5.60;;;5.10;;
59008;SDS011;44794;42.652;23.318;2023-06-19T13:26:06;6.63;;;5.03;;
59008;SDS011;44794;42.652;23.318;2023-06-19T13:28:31;8.02;;;5.55;;
59008;SDS011;44794;42.652;23.318;2023-06-19T13:30:56;7.20;;;4.97;;
59008;SDS011;44794;42.652;23.318;2023-06-19T13:33:22;7.15;;;4.93;;
59008;SDS011;44794;42.652;23.318;2023-06-19T13:35:47;6.63;;;4.80;;
59008;SDS011;44794;42.652;23.318;2023-06-19T13:38:13;7.22;;;5.28;;
59008;SDS011;44794;42.652;23.318;2023-06-19T13:40:41;6.80;;;4.85;;
59008;SDS011;44794;42.652;23.318;2023-06-19T13:43:08;6.20;;;5.10;;
59008;SDS011;44794;42.652;23.318;2023-06-19T13:45:33;8.50;;;5.15;;
59008;SDS011;44794;42.652;23.318;2023-06-19T13:48:00;5.00;;;4.50;;
59008;SDS011;44794;42.652;23.318;2023-06-19T13:50:26;6.85;;;4.80;;
59008;SDS011;44794;42.652;23.318;2023-06-19T13:52:52;6.82;;;4.50;;
59008;SDS011;44794;42.652;23.318;2023-06-19T13:55:18;7.55;;;4.53;;
59008;SDS011;44794;42.652;23.318;2023-06-19T13:57:44;7.00;;;4.88;;
59008;SDS011;44794;42.652;23.318;2023-06-19T14:00:10;5.97;;;4.57;;
59008;SDS011;44794;42.652;23.318;2023-06-19T14:02:37;5.40;;;4.65;;
59008;SDS011;44794;42.652;23.318;2023-06-19T14:05:04;6.63;;;4.90;;
59008;SDS011;44794;42.652;23.318;2023-06-19T14:07:34;8.90;;;5.18;;
59008;SDS011;44794;42.652;23.318;2023-06-19T14:10:00;5.30;;;4.50;;
59008;SDS011;44794;42.652;23.318;2023-06-19T14:12:27;6.00;;;4.40;;
59008;SDS011;44794;42.652;23.318;2023-06-19T14:14:53;8.07;;;4.57;;
59008;SDS011;44794;42.652;23.318;2023-06-19T14:17:19;7.85;;;4.82;;
59008;SDS011;44794;42.652;23.318;2023-06-19T14:19:45;6.05;;;4.82;;
59008;SDS011;44794;42.652;23.318;2023-06-19T14:22:11;5.93;;;4.88;;
59008;SDS011;44794;42.652;23.318;2023-06-19T14:24:36;8.02;;;4.70;;
59008;SDS011;44794;42.652;23.318;2023-06-19T14:27:01;5.15;;;4.65;;
59008;SDS011;44794;42.652;23.318;2023-06-19T14:29:27;9.07;;;4.80;;
59008;SDS011;44794;42.652;23.318;2023-06-19T14:31:52;5.45;;;4.38;;
59008;SDS011;44794;42.652;23.318;2023-06-19T14:34:18;7.85;;;5.00;;
59008;SDS011;44794;42.652;23.318;2023-06-19T14:36:45;5.60;;;4.40;;
59008;SDS011;44794;42.652;23.318;2023-06-19T14:39:11;6.35;;;5.13;;
59008;SDS011;44794;42.652;23.318;2023-06-19T14:41:37;7.22;;;4.90;;
59008;SDS011;44794;42.652;23.318;2023-06-19T14:44:04;9.80;;;4.70;;